sensor_id;sensor_type;location;lat;lon;timestamp;temperature;humidity
74617;DHT22;63123;50.906;4.198;2023-07-30T00:01:12;20.90;69.50
74617;DHT22;63123;50.906;4.198;2023-07-30T00:03:38;20.90;69.30
74617;DHT22;63123;50.906;4.198;2023-07-30T00:06:04;20.90;69.10
74617;DHT22;63123;50.906;4.198;2023-07-30T00:08:29;20.90;69.30
74617;DHT22;63123;50.906;4.198;2023-07-30T00:10:58;20.90;69.20
74617;DHT22;63123;50.906;4.198;2023-07-30T00:13:24;20.90;69.30
74617;DHT22;63123;50.906;4.198;2023-07-30T00:15:50;20.90;69.30
74617;DHT22;63123;50.906;4.198;2023-07-30T00:18:16;20.90;69.40
74617;DHT22;63123;50.906;4.198;2023-07-30T00:20:42;20.90;69.40
74617;DHT22;63123;50.906;4.198;2023-07-30T00:23:07;20.90;69.40
74617;DHT22;63123;50.906;4.198;2023-07-30T00:25:33;20.90;69.30
74617;DHT22;63123;50.906;4.198;2023-07-30T00:27:58;20.90;69.50
74617;DHT22;63123;50.906;4.198;2023-07-30T00:30:24;20.90;69.40
74617;DHT22;63123;50.906;4.198;2023-07-30T00:32:50;20.90;69.40
74617;DHT22;63123;50.906;4.198;2023-07-30T00:35:16;20.90;69.40
74617;DHT22;63123;50.906;4.198;2023-07-30T00:37:41;20.90;69.40
74617;DHT22;63123;50.906;4.198;2023-07-30T00:40:07;20.90;69.40
74617;DHT22;63123;50.906;4.198;2023-07-30T00:42:33;20.90;69.40
74617;DHT22;63123;50.906;4.198;2023-07-30T00:44:59;20.90;69.40
74617;DHT22;63123;50.906;4.198;2023-07-30T00:47:25;20.90;69.30
74617;DHT22;63123;50.906;4.198;2023-07-30T00:49:51;20.90;69.30
74617;DHT22;63123;50.906;4.198;2023-07-30T00:52:18;20.90;69.30
74617;DHT22;63123;50.906;4.198;2023-07-30T00:54:45;20.90;69.30
74617;DHT22;63123;50.906;4.198;2023-07-30T00:57:10;20.90;69.40
74617;DHT22;63123;50.906;4.198;2023-07-30T00:59:37;20.90;69.30
74617;DHT22;63123;50.906;4.198;2023-07-30T01:02:04;20.90;69.30
74617;DHT22;63123;50.906;4.198;2023-07-30T01:04:30;20.90;69.40
74617;DHT22;63123;50.906;4.198;2023-07-30T01:06:55;20.90;69.50
74617;DHT22;63123;50.906;4.198;2023-07-30T01:09:21;20.90;69.30
74617;DHT22;63123;50.906;4.198;2023-07-30T01:11:48;20.90;69.40
74617;DHT22;63123;50.906;4.198;2023-07-30T01:14:14;20.90;69.30
74617;DHT22;63123;50.906;4.198;2023-07-30T01:16:41;20.90;69.40
74617;DHT22;63123;50.906;4.198;2023-07-30T01:19:07;20.90;69.30
74617;DHT22;63123;50.906;4.198;2023-07-30T01:21:37;20.90;69.30
74617;DHT22;63123;50.906;4.198;2023-07-30T01:24:03;20.90;69.40
74617;DHT22;63123;50.906;4.198;2023-07-30T01:26:51;20.90;69.30
74617;DHT22;63123;50.906;4.198;2023-07-30T01:29:28;20.90;68.90
74617;DHT22;63123;50.906;4.198;2023-07-30T01:32:02;20.90;69.10
74617;DHT22;63123;50.906;4.198;2023-07-30T01:34:30;20.90;69.30
74617;DHT22;63123;50.906;4.198;2023-07-30T01:37:00;20.90;69.40
74617;DHT22;63123;50.906;4.198;2023-07-30T01:39:27;20.90;69.40
74617;DHT22;63123;50.906;4.198;2023-07-30T01:41:56;20.90;69.50
74617;DHT22;63123;50.906;4.198;2023-07-30T01:44:22;20.90;69.40
74617;DHT22;63123;50.906;4.198;2023-07-30T01:46:47;20.90;69.40
74617;DHT22;63123;50.906;4.198;2023-07-30T01:49:13;20.90;69.30
74617;DHT22;63123;50.906;4.198;2023-07-30T01:51:38;20.90;69.40
74617;DHT22;63123;50.906;4.198;2023-07-30T01:54:04;20.90;69.30
74617;DHT22;63123;50.906;4.198;2023-07-30T01:56:29;20.90;69.30
74617;DHT22;63123;50.906;4.198;2023-07-30T01:58:55;20.90;69.40
74617;DHT22;63123;50.906;4.198;2023-07-30T02:01:21;20.90;69.40
74617;DHT22;63123;50.906;4.198;2023-07-30T02:03:46;20.90;69.30
74617;DHT22;63123;50.906;4.198;2023-07-30T02:06:12;20.90;69.40
74617;DHT22;63123;50.906;4.198;2023-07-30T02:08:38;20.90;69.40
74617;DHT22;63123;50.906;4.198;2023-07-30T02:11:03;20.90;69.40
74617;DHT22;63123;50.906;4.198;2023-07-30T02:13:29;20.90;69.40
74617;DHT22;63123;50.906;4.198;2023-07-30T02:15:55;20.90;69.40
74617;DHT22;63123;50.906;4.198;2023-07-30T02:18:20;20.90;69.50
74617;DHT22;63123;50.906;4.198;2023-07-30T02:20:46;20.90;69.20
74617;DHT22;63123;50.906;4.198;2023-07-30T02:23:14;20.90;69.40
74617;DHT22;63123;50.906;4.198;2023-07-30T02:25:40;20.90;69.30
74617;DHT22;63123;50.906;4.198;2023-07-30T02:28:06;20.90;69.40
74617;DHT22;63123;50.906;4.198;2023-07-30T02:30:33;20.90;69.40
74617;DHT22;63123;50.906;4.198;2023-07-30T02:32:59;20.90;69.40
74617;DHT22;63123;50.906;4.198;2023-07-30T02:35:24;20.90;69.40
74617;DHT22;63123;50.906;4.198;2023-07-30T02:37:50;20.90;69.40
74617;DHT22;63123;50.906;4.198;2023-07-30T02:40:16;20.90;69.40
74617;DHT22;63123;50.906;4.198;2023-07-30T02:42:41;20.90;69.40
74617;DHT22;63123;50.906;4.198;2023-07-30T02:45:07;20.90;69.40
74617;DHT22;63123;50.906;4.198;2023-07-30T02:47:33;20.90;69.30
74617;DHT22;63123;50.906;4.198;2023-07-30T02:49:58;20.90;70.10
74617;DHT22;63123;50.906;4.198;2023-07-30T02:52:24;20.90;69.50
74617;DHT22;63123;50.906;4.198;2023-07-30T02:54:50;20.90;69.40
74617;DHT22;63123;50.906;4.198;2023-07-30T02:57:15;20.90;69.30
74617;DHT22;63123;50.906;4.198;2023-07-30T02:59:41;20.90;69.40
74617;DHT22;63123;50.906;4.198;2023-07-30T03:02:06;20.90;69.30
74617;DHT22;63123;50.906;4.198;2023-07-30T03:04:32;20.90;69.30
74617;DHT22;63123;50.906;4.198;2023-07-30T03:06:58;20.90;69.30
74617;DHT22;63123;50.906;4.198;2023-07-30T03:09:24;20.90;69.40
74617;DHT22;63123;50.906;4.198;2023-07-30T03:11:50;20.90;69.40
74617;DHT22;63123;50.906;4.198;2023-07-30T03:14:16;20.90;69.40
74617;DHT22;63123;50.906;4.198;2023-07-30T03:16:41;20.90;69.40
74617;DHT22;63123;50.906;4.198;2023-07-30T03:19:07;20.90;69.40
74617;DHT22;63123;50.906;4.198;2023-07-30T03:21:33;20.90;69.40
74617;DHT22;63123;50.906;4.198;2023-07-30T03:23:58;20.90;69.40
74617;DHT22;63123;50.906;4.198;2023-07-30T03:26:24;20.90;69.40
74617;DHT22;63123;50.906;4.198;2023-07-30T03:28:49;20.90;69.40
74617;DHT22;63123;50.906;4.198;2023-07-30T03:31:15;20.90;69.30
74617;DHT22;63123;50.906;4.198;2023-07-30T03:33:41;20.90;69.40
74617;DHT22;63123;50.906;4.198;2023-07-30T03:36:10;20.90;69.30
74617;DHT22;63123;50.906;4.198;2023-07-30T03:38:36;20.90;69.30
74617;DHT22;63123;50.906;4.198;2023-07-30T03:41:03;20.90;69.40
74617;DHT22;63123;50.906;4.198;2023-07-30T03:43:29;20.90;69.40
74617;DHT22;63123;50.906;4.198;2023-07-30T03:45:55;20.90;69.40
74617;DHT22;63123;50.906;4.198;2023-07-30T03:48:20;20.90;69.40
74617;DHT22;63123;50.906;4.198;2023-07-30T03:50:46;20.90;69.40
74617;DHT22;63123;50.906;4.198;2023-07-30T03:53:12;20.90;69.40
74617;DHT22;63123;50.906;4.198;2023-07-30T03:55:37;20.90;69.40
74617;DHT22;63123;50.906;4.198;2023-07-30T03:58:03;20.90;69.30
74617;DHT22;63123;50.906;4.198;2023-07-30T04:00:29;20.90;69.40
74617;DHT22;63123;50.906;4.198;2023-07-30T04:02:54;20.90;69.30
74617;DHT22;63123;50.906;4.198;2023-07-30T04:05:20;20.90;69.30
74617;DHT22;63123;50.906;4.198;2023-07-30T04:07:45;20.90;69.40
74617;DHT22;63123;50.906;4.198;2023-07-30T04:10:11;20.90;69.30
74617;DHT22;63123;50.906;4.198;2023-07-30T04:12:37;20.90;69.40
74617;DHT22;63123;50.906;4.198;2023-07-30T04:15:03;20.90;69.30
74617;DHT22;63123;50.906;4.198;2023-07-30T04:17:28;20.90;69.40
74617;DHT22;63123;50.906;4.198;2023-07-30T04:19:54;20.90;69.30
74617;DHT22;63123;50.906;4.198;2023-07-30T04:22:19;20.90;69.30
74617;DHT22;63123;50.906;4.198;2023-07-30T04:24:45;20.90;69.30
74617;DHT22;63123;50.906;4.198;2023-07-30T04:27:10;20.90;69.30
74617;DHT22;63123;50.906;4.198;2023-07-30T04:29:36;20.90;69.40
74617;DHT22;63123;50.906;4.198;2023-07-30T04:32:02;20.90;69.30
74617;DHT22;63123;50.906;4.198;2023-07-30T04:34:27;20.90;69.40
74617;DHT22;63123;50.906;4.198;2023-07-30T04:36:53;20.90;69.30
74617;DHT22;63123;50.906;4.198;2023-07-30T04:39:18;20.90;69.30
74617;DHT22;63123;50.906;4.198;2023-07-30T04:41:44;20.90;69.40
74617;DHT22;63123;50.906;4.198;2023-07-30T04:44:09;20.90;69.40
74617;DHT22;63123;50.906;4.198;2023-07-30T04:46:35;20.90;69.30
74617;DHT22;63123;50.906;4.198;2023-07-30T04:49:02;20.90;69.30
74617;DHT22;63123;50.906;4.198;2023-07-30T04:51:29;20.90;69.30
74617;DHT22;63123;50.906;4.198;2023-07-30T04:53:55;20.90;69.40
74617;DHT22;63123;50.906;4.198;2023-07-30T04:56:21;20.90;69.40
74617;DHT22;63123;50.906;4.198;2023-07-30T04:58:46;20.90;69.40
74617;DHT22;63123;50.906;4.198;2023-07-30T05:01:12;20.90;69.30
74617;DHT22;63123;50.906;4.198;2023-07-30T05:03:37;20.80;69.30
74617;DHT22;63123;50.906;4.198;2023-07-30T05:06:03;20.90;69.30
74617;DHT22;63123;50.906;4.198;2023-07-30T05:08:29;20.90;69.40
74617;DHT22;63123;50.906;4.198;2023-07-30T05:10:54;20.90;69.30
74617;DHT22;63123;50.906;4.198;2023-07-30T05:13:20;20.90;70.00
74617;DHT22;63123;50.906;4.198;2023-07-30T05:15:45;20.90;69.50
74617;DHT22;63123;50.906;4.198;2023-07-30T05:18:11;20.90;69.30
74617;DHT22;63123;50.906;4.198;2023-07-30T05:20:36;20.90;69.40
74617;DHT22;63123;50.906;4.198;2023-07-30T05:23:02;20.90;69.40
74617;DHT22;63123;50.906;4.198;2023-07-30T05:25:28;20.90;69.40
74617;DHT22;63123;50.906;4.198;2023-07-30T05:27:54;20.90;69.40
74617;DHT22;63123;50.906;4.198;2023-07-30T05:30:19;20.90;69.50
74617;DHT22;63123;50.906;4.198;2023-07-30T05:32:45;20.90;69.40
74617;DHT22;63123;50.906;4.198;2023-07-30T05:35:10;20.90;69.50
74617;DHT22;63123;50.906;4.198;2023-07-30T05:37:36;20.90;69.40
74617;DHT22;63123;50.906;4.198;2023-07-30T05:40:02;20.90;69.40
74617;DHT22;63123;50.906;4.198;2023-07-30T05:42:28;20.90;69.40
74617;DHT22;63123;50.906;4.198;2023-07-30T05:44:54;20.90;69.40
74617;DHT22;63123;50.906;4.198;2023-07-30T05:47:19;20.90;69.40
74617;DHT22;63123;50.906;4.198;2023-07-30T05:49:45;20.90;69.40
74617;DHT22;63123;50.906;4.198;2023-07-30T05:52:10;20.90;69.40
74617;DHT22;63123;50.906;4.198;2023-07-30T05:54:36;20.90;69.40
74617;DHT22;63123;50.906;4.198;2023-07-30T05:57:01;20.90;69.40
74617;DHT22;63123;50.906;4.198;2023-07-30T05:59:27;20.90;69.50
74617;DHT22;63123;50.906;4.198;2023-07-30T06:01:53;20.90;69.50
74617;DHT22;63123;50.906;4.198;2023-07-30T06:04:18;20.90;69.40
74617;DHT22;63123;50.906;4.198;2023-07-30T06:06:44;20.90;69.40
74617;DHT22;63123;50.906;4.198;2023-07-30T06:09:09;20.90;69.40
74617;DHT22;63123;50.906;4.198;2023-07-30T06:11:36;20.90;69.40
74617;DHT22;63123;50.906;4.198;2023-07-30T06:14:02;20.90;69.50
74617;DHT22;63123;50.906;4.198;2023-07-30T06:16:27;20.90;69.50
74617;DHT22;63123;50.906;4.198;2023-07-30T06:18:53;20.90;69.40
74617;DHT22;63123;50.906;4.198;2023-07-30T06:21:19;20.90;69.40
74617;DHT22;63123;50.906;4.198;2023-07-30T06:23:44;20.90;69.40
74617;DHT22;63123;50.906;4.198;2023-07-30T06:26:10;20.90;69.40
74617;DHT22;63123;50.906;4.198;2023-07-30T06:28:35;20.90;69.40
74617;DHT22;63123;50.906;4.198;2023-07-30T06:31:02;20.90;69.50
74617;DHT22;63123;50.906;4.198;2023-07-30T06:33:27;20.90;69.40
74617;DHT22;63123;50.906;4.198;2023-07-30T06:35:53;20.90;69.40
74617;DHT22;63123;50.906;4.198;2023-07-30T06:38:19;20.90;69.40
74617;DHT22;63123;50.906;4.198;2023-07-30T06:40:44;20.90;69.40
74617;DHT22;63123;50.906;4.198;2023-07-30T06:43:10;20.90;69.50
74617;DHT22;63123;50.906;4.198;2023-07-30T06:45:35;20.90;69.40
74617;DHT22;63123;50.906;4.198;2023-07-30T06:48:01;20.90;69.40
74617;DHT22;63123;50.906;4.198;2023-07-30T06:50:26;20.90;69.40
74617;DHT22;63123;50.906;4.198;2023-07-30T06:52:52;20.90;69.40
74617;DHT22;63123;50.906;4.198;2023-07-30T06:55:17;20.90;69.50
74617;DHT22;63123;50.906;4.198;2023-07-30T06:57:43;20.90;69.40
74617;DHT22;63123;50.906;4.198;2023-07-30T07:00:09;20.90;69.50
74617;DHT22;63123;50.906;4.198;2023-07-30T07:02:35;20.90;69.40
74617;DHT22;63123;50.906;4.198;2023-07-30T07:05:01;20.90;69.40
74617;DHT22;63123;50.906;4.198;2023-07-30T07:07:27;20.90;69.50
74617;DHT22;63123;50.906;4.198;2023-07-30T07:09:52;20.90;69.40
74617;DHT22;63123;50.906;4.198;2023-07-30T07:12:18;20.90;69.40
74617;DHT22;63123;50.906;4.198;2023-07-30T07:14:44;20.90;69.40
74617;DHT22;63123;50.906;4.198;2023-07-30T07:17:09;20.90;69.40
74617;DHT22;63123;50.906;4.198;2023-07-30T07:19:35;20.90;69.40
74617;DHT22;63123;50.906;4.198;2023-07-30T07:22:04;20.90;69.40
74617;DHT22;63123;50.906;4.198;2023-07-30T07:24:30;20.90;69.40
74617;DHT22;63123;50.906;4.198;2023-07-30T07:26:56;20.90;69.40
74617;DHT22;63123;50.906;4.198;2023-07-30T07:29:22;20.90;69.50
74617;DHT22;63123;50.906;4.198;2023-07-30T07:31:48;20.90;69.40
74617;DHT22;63123;50.906;4.198;2023-07-30T07:34:13;20.90;69.50
74617;DHT22;63123;50.906;4.198;2023-07-30T07:36:39;20.90;69.40
74617;DHT22;63123;50.906;4.198;2023-07-30T07:39:05;20.90;69.30
74617;DHT22;63123;50.906;4.198;2023-07-30T07:41:31;20.90;69.30
74617;DHT22;63123;50.906;4.198;2023-07-30T07:43:57;20.90;69.40
74617;DHT22;63123;50.906;4.198;2023-07-30T07:46:23;20.90;69.30
74617;DHT22;63123;50.906;4.198;2023-07-30T07:48:48;20.90;69.30
74617;DHT22;63123;50.906;4.198;2023-07-30T07:51:14;20.90;69.30
74617;DHT22;63123;50.906;4.198;2023-07-30T07:53:40;20.90;69.30
74617;DHT22;63123;50.906;4.198;2023-07-30T07:56:05;20.90;69.30
74617;DHT22;63123;50.906;4.198;2023-07-30T07:58:31;20.90;69.30
74617;DHT22;63123;50.906;4.198;2023-07-30T08:00:59;20.90;69.20
74617;DHT22;63123;50.906;4.198;2023-07-30T08:03:25;20.90;69.30
74617;DHT22;63123;50.906;4.198;2023-07-30T08:05:54;20.90;69.30
74617;DHT22;63123;50.906;4.198;2023-07-30T08:08:19;20.90;69.30
74617;DHT22;63123;50.906;4.198;2023-07-30T08:10:45;20.90;69.30
74617;DHT22;63123;50.906;4.198;2023-07-30T08:13:13;20.90;69.20
74617;DHT22;63123;50.906;4.198;2023-07-30T08:15:39;20.90;69.20
74617;DHT22;63123;50.906;4.198;2023-07-30T08:18:05;20.90;69.20
74617;DHT22;63123;50.906;4.198;2023-07-30T08:20:30;20.90;69.10
74617;DHT22;63123;50.906;4.198;2023-07-30T08:22:56;20.90;69.10
74617;DHT22;63123;50.906;4.198;2023-07-30T08:25:21;20.90;69.10
74617;DHT22;63123;50.906;4.198;2023-07-30T08:27:47;20.90;69.20
74617;DHT22;63123;50.906;4.198;2023-07-30T08:30:13;20.90;69.10
74617;DHT22;63123;50.906;4.198;2023-07-30T08:32:38;20.90;69.20
74617;DHT22;63123;50.906;4.198;2023-07-30T08:35:04;20.90;69.20
74617;DHT22;63123;50.906;4.198;2023-07-30T08:37:30;20.90;69.20
74617;DHT22;63123;50.906;4.198;2023-07-30T08:39:56;20.90;69.10
74617;DHT22;63123;50.906;4.198;2023-07-30T08:42:22;20.90;69.10
74617;DHT22;63123;50.906;4.198;2023-07-30T08:44:48;20.90;69.00
74617;DHT22;63123;50.906;4.198;2023-07-30T08:47:13;20.90;69.00
74617;DHT22;63123;50.906;4.198;2023-07-30T08:49:39;20.90;69.10
74617;DHT22;63123;50.906;4.198;2023-07-30T08:52:08;20.90;69.10
74617;DHT22;63123;50.906;4.198;2023-07-30T08:54:34;20.90;69.10
74617;DHT22;63123;50.906;4.198;2023-07-30T08:57:01;20.90;69.00
74617;DHT22;63123;50.906;4.198;2023-07-30T08:59:39;20.90;69.00
74617;DHT22;63123;50.906;4.198;2023-07-30T09:02:11;20.90;69.10
74617;DHT22;63123;50.906;4.198;2023-07-30T09:04:39;20.90;69.10
74617;DHT22;63123;50.906;4.198;2023-07-30T09:07:08;20.90;69.10
74617;DHT22;63123;50.906;4.198;2023-07-30T09:09:36;20.90;69.10
74617;DHT22;63123;50.906;4.198;2023-07-30T09:12:02;20.90;69.10
74617;DHT22;63123;50.906;4.198;2023-07-30T09:14:28;20.90;69.10
74617;DHT22;63123;50.906;4.198;2023-07-30T09:16:57;20.90;69.20
74617;DHT22;63123;50.906;4.198;2023-07-30T09:19:23;20.90;69.20
74617;DHT22;63123;50.906;4.198;2023-07-30T09:21:49;20.90;69.20
74617;DHT22;63123;50.906;4.198;2023-07-30T09:24:21;20.90;69.10
74617;DHT22;63123;50.906;4.198;2023-07-30T09:26:47;20.90;69.10
74617;DHT22;63123;50.906;4.198;2023-07-30T09:29:13;20.90;69.10
74617;DHT22;63123;50.906;4.198;2023-07-30T09:31:50;20.90;69.70
74617;DHT22;63123;50.906;4.198;2023-07-30T09:34:18;20.90;69.10
74617;DHT22;63123;50.906;4.198;2023-07-30T09:36:44;20.90;69.10
74617;DHT22;63123;50.906;4.198;2023-07-30T09:39:21;20.90;69.10
74617;DHT22;63123;50.906;4.198;2023-07-30T09:41:48;20.90;69.10
74617;DHT22;63123;50.906;4.198;2023-07-30T09:44:16;20.90;69.10
74617;DHT22;63123;50.906;4.198;2023-07-30T09:46:48;20.90;69.10
74617;DHT22;63123;50.906;4.198;2023-07-30T09:49:15;20.90;69.20
74617;DHT22;63123;50.906;4.198;2023-07-30T09:51:41;20.90;69.20
74617;DHT22;63123;50.906;4.198;2023-07-30T09:54:08;20.90;69.20
74617;DHT22;63123;50.906;4.198;2023-07-30T09:56:36;20.90;69.20
74617;DHT22;63123;50.906;4.198;2023-07-30T09:59:01;20.90;69.20
74617;DHT22;63123;50.906;4.198;2023-07-30T10:01:28;20.90;69.20
74617;DHT22;63123;50.906;4.198;2023-07-30T10:03:57;20.90;69.20
74617;DHT22;63123;50.906;4.198;2023-07-30T10:06:25;20.90;69.20
74617;DHT22;63123;50.906;4.198;2023-07-30T10:08:53;20.90;69.20
74617;DHT22;63123;50.906;4.198;2023-07-30T10:11:21;21.00;69.20
74617;DHT22;63123;50.906;4.198;2023-07-30T10:13:48;20.90;69.20
74617;DHT22;63123;50.906;4.198;2023-07-30T10:16:13;20.90;69.70
74617;DHT22;63123;50.906;4.198;2023-07-30T10:18:40;20.90;69.20
74617;DHT22;63123;50.906;4.198;2023-07-30T10:21:08;20.90;69.20
74617;DHT22;63123;50.906;4.198;2023-07-30T10:23:48;20.90;69.20
74617;DHT22;63123;50.906;4.198;2023-07-30T10:26:15;20.90;69.20
74617;DHT22;63123;50.906;4.198;2023-07-30T10:28:40;20.90;69.20
74617;DHT22;63123;50.906;4.198;2023-07-30T10:31:09;20.90;69.20
74617;DHT22;63123;50.906;4.198;2023-07-30T10:33:49;20.90;69.20
74617;DHT22;63123;50.906;4.198;2023-07-30T10:36:36;20.90;69.20
74617;DHT22;63123;50.906;4.198;2023-07-30T10:39:19;20.90;69.20
74617;DHT22;63123;50.906;4.198;2023-07-30T10:41:54;21.00;69.30
74617;DHT22;63123;50.906;4.198;2023-07-30T10:44:28;20.90;69.20
74617;DHT22;63123;50.906;4.198;2023-07-30T10:46:57;20.90;69.20
74617;DHT22;63123;50.906;4.198;2023-07-30T10:49:24;20.90;69.20
74617;DHT22;63123;50.906;4.198;2023-07-30T10:51:53;20.90;69.20
74617;DHT22;63123;50.906;4.198;2023-07-30T10:54:20;21.00;69.30
74617;DHT22;63123;50.906;4.198;2023-07-30T10:56:46;21.00;69.30
74617;DHT22;63123;50.906;4.198;2023-07-30T10:59:12;20.90;69.30
74617;DHT22;63123;50.906;4.198;2023-07-30T11:01:40;20.90;69.30
74617;DHT22;63123;50.906;4.198;2023-07-30T11:04:08;20.90;69.30
74617;DHT22;63123;50.906;4.198;2023-07-30T11:06:34;20.90;69.20
74617;DHT22;63123;50.906;4.198;2023-07-30T11:08:59;20.90;69.30
74617;DHT22;63123;50.906;4.198;2023-07-30T11:11:25;20.90;69.20
74617;DHT22;63123;50.906;4.198;2023-07-30T11:13:51;20.90;69.10
74617;DHT22;63123;50.906;4.198;2023-07-30T11:16:17;20.90;69.10
74617;DHT22;63123;50.906;4.198;2023-07-30T11:18:43;20.90;69.10
74617;DHT22;63123;50.906;4.198;2023-07-30T11:21:14;21.00;69.10
74617;DHT22;63123;50.906;4.198;2023-07-30T11:23:41;21.00;69.10
74617;DHT22;63123;50.906;4.198;2023-07-30T11:26:09;20.90;69.00
74617;DHT22;63123;50.906;4.198;2023-07-30T11:28:39;20.90;69.00
74617;DHT22;63123;50.906;4.198;2023-07-30T11:31:07;21.00;68.90
74617;DHT22;63123;50.906;4.198;2023-07-30T11:33:35;21.00;68.90
74617;DHT22;63123;50.906;4.198;2023-07-30T11:36:02;20.90;68.90
74617;DHT22;63123;50.906;4.198;2023-07-30T11:38:29;21.00;68.80
74617;DHT22;63123;50.906;4.198;2023-07-30T11:40:55;21.00;68.80
74617;DHT22;63123;50.906;4.198;2023-07-30T11:43:22;20.90;68.80
74617;DHT22;63123;50.906;4.198;2023-07-30T11:45:48;20.90;68.40
74617;DHT22;63123;50.906;4.198;2023-07-30T11:48:13;20.90;68.60
74617;DHT22;63123;50.906;4.198;2023-07-30T11:50:48;21.00;68.50
74617;DHT22;63123;50.906;4.198;2023-07-30T11:53:14;20.90;68.60
74617;DHT22;63123;50.906;4.198;2023-07-30T11:55:41;20.90;68.60
74617;DHT22;63123;50.906;4.198;2023-07-30T11:58:07;21.00;68.40
74617;DHT22;63123;50.906;4.198;2023-07-30T12:00:35;20.90;68.20
74617;DHT22;63123;50.906;4.198;2023-07-30T12:03:06;21.00;68.00
74617;DHT22;63123;50.906;4.198;2023-07-30T12:05:37;21.00;68.40
74617;DHT22;63123;50.906;4.198;2023-07-30T12:08:05;21.00;68.10
74617;DHT22;63123;50.906;4.198;2023-07-30T12:10:46;21.00;68.30
74617;DHT22;63123;50.906;4.198;2023-07-30T12:13:20;20.90;67.70
74617;DHT22;63123;50.906;4.198;2023-07-30T12:15:53;20.90;68.20
74617;DHT22;63123;50.906;4.198;2023-07-30T12:18:22;21.00;68.00
74617;DHT22;63123;50.906;4.198;2023-07-30T12:20:52;20.90;67.80
74617;DHT22;63123;50.906;4.198;2023-07-30T12:23:19;21.00;67.80
74617;DHT22;63123;50.906;4.198;2023-07-30T12:25:46;20.90;68.10
74617;DHT22;63123;50.906;4.198;2023-07-30T12:28:12;20.90;67.70
74617;DHT22;63123;50.906;4.198;2023-07-30T12:30:38;20.90;67.90
74617;DHT22;63123;50.906;4.198;2023-07-30T12:33:04;21.00;68.20
74617;DHT22;63123;50.906;4.198;2023-07-30T12:35:31;20.90;67.80
74617;DHT22;63123;50.906;4.198;2023-07-30T12:37:57;21.00;67.90
74617;DHT22;63123;50.906;4.198;2023-07-30T12:40:23;20.90;67.60
74617;DHT22;63123;50.906;4.198;2023-07-30T12:42:48;21.00;67.90
74617;DHT22;63123;50.906;4.198;2023-07-30T12:45:14;21.00;67.80
74617;DHT22;63123;50.906;4.198;2023-07-30T12:47:40;21.00;67.80
74617;DHT22;63123;50.906;4.198;2023-07-30T12:50:06;20.90;67.80
74617;DHT22;63123;50.906;4.198;2023-07-30T12:52:33;21.00;67.60
74617;DHT22;63123;50.906;4.198;2023-07-30T12:55:00;20.90;67.20
74617;DHT22;63123;50.906;4.198;2023-07-30T12:57:26;21.00;67.50
74617;DHT22;63123;50.906;4.198;2023-07-30T12:59:51;21.00;67.20
74617;DHT22;63123;50.906;4.198;2023-07-30T13:02:17;21.00;67.10
74617;DHT22;63123;50.906;4.198;2023-07-30T13:04:42;21.00;67.20
74617;DHT22;63123;50.906;4.198;2023-07-30T13:07:08;21.00;67.20
74617;DHT22;63123;50.906;4.198;2023-07-30T13:09:33;21.00;67.00
74617;DHT22;63123;50.906;4.198;2023-07-30T13:11:59;21.00;67.10
74617;DHT22;63123;50.906;4.198;2023-07-30T13:14:25;21.00;66.90
74617;DHT22;63123;50.906;4.198;2023-07-30T13:16:50;21.00;67.50
74617;DHT22;63123;50.906;4.198;2023-07-30T13:19:16;21.00;67.10
74617;DHT22;63123;50.906;4.198;2023-07-30T13:21:41;21.00;66.90
74617;DHT22;63123;50.906;4.198;2023-07-30T13:24:07;21.00;67.00
74617;DHT22;63123;50.906;4.198;2023-07-30T13:26:35;21.00;66.80
74617;DHT22;63123;50.906;4.198;2023-07-30T13:29:00;20.90;67.10
74617;DHT22;63123;50.906;4.198;2023-07-30T13:31:26;21.00;66.90
74617;DHT22;63123;50.906;4.198;2023-07-30T13:33:52;21.00;67.20
74617;DHT22;63123;50.906;4.198;2023-07-30T13:36:17;21.00;66.70
74617;DHT22;63123;50.906;4.198;2023-07-30T13:38:44;21.00;66.70
74617;DHT22;63123;50.906;4.198;2023-07-30T13:41:09;21.00;66.70
74617;DHT22;63123;50.906;4.198;2023-07-30T13:43:35;21.00;66.50
74617;DHT22;63123;50.906;4.198;2023-07-30T13:46:01;21.00;66.20
74617;DHT22;63123;50.906;4.198;2023-07-30T13:48:27;21.00;66.20
74617;DHT22;63123;50.906;4.198;2023-07-30T13:50:53;21.00;66.20
74617;DHT22;63123;50.906;4.198;2023-07-30T13:53:19;21.00;66.50
74617;DHT22;63123;50.906;4.198;2023-07-30T13:55:45;21.00;66.20
74617;DHT22;63123;50.906;4.198;2023-07-30T13:58:10;21.00;66.40
74617;DHT22;63123;50.906;4.198;2023-07-30T14:00:36;21.00;66.60
74617;DHT22;63123;50.906;4.198;2023-07-30T14:03:02;21.00;66.80
74617;DHT22;63123;50.906;4.198;2023-07-30T14:05:27;21.00;66.30
74617;DHT22;63123;50.906;4.198;2023-07-30T14:07:57;21.00;66.50
74617;DHT22;63123;50.906;4.198;2023-07-30T14:10:23;21.00;66.90
74617;DHT22;63123;50.906;4.198;2023-07-30T14:12:49;21.00;66.90
74617;DHT22;63123;50.906;4.198;2023-07-30T14:15:14;21.00;66.90
74617;DHT22;63123;50.906;4.198;2023-07-30T14:17:41;21.00;66.90
74617;DHT22;63123;50.906;4.198;2023-07-30T14:20:07;21.00;66.60
74617;DHT22;63123;50.906;4.198;2023-07-30T14:22:34;21.00;66.60
74617;DHT22;63123;50.906;4.198;2023-07-30T14:25:00;21.00;67.80
74617;DHT22;63123;50.906;4.198;2023-07-30T14:27:26;21.00;66.90
74617;DHT22;63123;50.906;4.198;2023-07-30T14:29:51;21.00;67.10
74617;DHT22;63123;50.906;4.198;2023-07-30T14:32:19;21.00;67.00
74617;DHT22;63123;50.906;4.198;2023-07-30T14:34:45;21.00;66.90
74617;DHT22;63123;50.906;4.198;2023-07-30T14:37:11;21.00;67.20
74617;DHT22;63123;50.906;4.198;2023-07-30T14:39:36;21.00;67.10
74617;DHT22;63123;50.906;4.198;2023-07-30T14:42:02;21.00;67.10
74617;DHT22;63123;50.906;4.198;2023-07-30T14:44:28;21.00;67.30
74617;DHT22;63123;50.906;4.198;2023-07-30T14:46:53;21.00;67.20
74617;DHT22;63123;50.906;4.198;2023-07-30T14:49:19;21.00;67.10
74617;DHT22;63123;50.906;4.198;2023-07-30T14:51:45;21.00;67.30
74617;DHT22;63123;50.906;4.198;2023-07-30T14:54:12;21.00;67.30
74617;DHT22;63123;50.906;4.198;2023-07-30T14:56:38;21.00;67.40
74617;DHT22;63123;50.906;4.198;2023-07-30T14:59:03;21.00;67.40
74617;DHT22;63123;50.906;4.198;2023-07-30T15:01:29;21.00;67.20
74617;DHT22;63123;50.906;4.198;2023-07-30T15:03:55;21.00;67.30
74617;DHT22;63123;50.906;4.198;2023-07-30T15:06:20;21.00;67.20
74617;DHT22;63123;50.906;4.198;2023-07-30T15:08:47;21.00;67.30
74617;DHT22;63123;50.906;4.198;2023-07-30T15:11:13;21.00;67.30
74617;DHT22;63123;50.906;4.198;2023-07-30T15:13:40;21.00;67.20
74617;DHT22;63123;50.906;4.198;2023-07-30T15:16:06;21.00;67.30
74617;DHT22;63123;50.906;4.198;2023-07-30T15:18:32;21.00;67.30
74617;DHT22;63123;50.906;4.198;2023-07-30T15:20:58;21.00;67.40
74617;DHT22;63123;50.906;4.198;2023-07-30T15:23:24;21.00;67.40
74617;DHT22;63123;50.906;4.198;2023-07-30T15:25:49;21.00;67.40